sensor_id;sensor_type;location;lat;lon;timestamp;temperature;humidity
35894;DHT22;21994;48.204;16.516;2023-01-26T00:01:08;1.50;99.90
35894;DHT22;21994;48.204;16.516;2023-01-26T00:03:38;1.50;99.90
35894;DHT22;21994;48.204;16.516;2023-01-26T00:06:04;1.60;99.90
35894;DHT22;21994;48.204;16.516;2023-01-26T00:08:34;1.50;99.90
35894;DHT22;21994;48.204;16.516;2023-01-26T00:11:04;1.50;99.90
35894;DHT22;21994;48.204;16.516;2023-01-26T00:13:30;1.50;99.90
35894;DHT22;21994;48.204;16.516;2023-01-26T00:15:56;1.50;99.90
35894;DHT22;21994;48.204;16.516;2023-01-26T00:18:22;1.50;99.90
35894;DHT22;21994;48.204;16.516;2023-01-26T00:20:48;1.60;99.90
35894;DHT22;21994;48.204;16.516;2023-01-26T00:23:19;1.50;99.90
35894;DHT22;21994;48.204;16.516;2023-01-26T00:25:45;1.50;99.90
35894;DHT22;21994;48.204;16.516;2023-01-26T00:28:11;1.60;99.90
35894;DHT22;21994;48.204;16.516;2023-01-26T00:30:36;1.40;99.90
35894;DHT22;21994;48.204;16.516;2023-01-26T00:33:02;1.50;99.90
35894;DHT22;21994;48.204;16.516;2023-01-26T00:35:28;1.50;99.90
35894;DHT22;21994;48.204;16.516;2023-01-26T00:37:54;1.50;99.90
35894;DHT22;21994;48.204;16.516;2023-01-26T00:40:19;1.50;99.90
35894;DHT22;21994;48.204;16.516;2023-01-26T00:42:45;1.50;99.90
35894;DHT22;21994;48.204;16.516;2023-01-26T00:45:11;1.50;99.90
35894;DHT22;21994;48.204;16.516;2023-01-26T00:47:37;1.40;99.90
35894;DHT22;21994;48.204;16.516;2023-01-26T00:50:05;1.40;99.90
35894;DHT22;21994;48.204;16.516;2023-01-26T00:52:31;1.40;99.90
35894;DHT22;21994;48.204;16.516;2023-01-26T00:54:57;1.50;99.90
35894;DHT22;21994;48.204;16.516;2023-01-26T00:57:23;1.50;99.90
35894;DHT22;21994;48.204;16.516;2023-01-26T00:59:49;1.50;99.90
35894;DHT22;21994;48.204;16.516;2023-01-26T01:02:15;1.50;99.90
35894;DHT22;21994;48.204;16.516;2023-01-26T01:04:40;1.40;99.90
35894;DHT22;21994;48.204;16.516;2023-01-26T01:07:06;1.40;99.90
35894;DHT22;21994;48.204;16.516;2023-01-26T01:09:32;1.50;99.90
35894;DHT22;21994;48.204;16.516;2023-01-26T01:11:58;1.50;99.90
35894;DHT22;21994;48.204;16.516;2023-01-26T01:14:23;1.40;99.90
35894;DHT22;21994;48.204;16.516;2023-01-26T01:16:49;1.30;99.90
35894;DHT22;21994;48.204;16.516;2023-01-26T01:19:16;1.20;99.90
35894;DHT22;21994;48.204;16.516;2023-01-26T01:21:43;1.10;99.90
35894;DHT22;21994;48.204;16.516;2023-01-26T01:24:09;1.20;99.90
35894;DHT22;21994;48.204;16.516;2023-01-26T01:26:36;1.30;99.90
35894;DHT22;21994;48.204;16.516;2023-01-26T01:29:02;1.30;99.90
35894;DHT22;21994;48.204;16.516;2023-01-26T01:31:28;1.20;99.90
35894;DHT22;21994;48.204;16.516;2023-01-26T01:33:55;1.10;99.90
35894;DHT22;21994;48.204;16.516;2023-01-26T01:36:21;1.10;99.90
35894;DHT22;21994;48.204;16.516;2023-01-26T01:38:48;1.10;99.90
35894;DHT22;21994;48.204;16.516;2023-01-26T01:41:16;1.10;99.90
35894;DHT22;21994;48.204;16.516;2023-01-26T01:43:44;1.00;99.90
35894;DHT22;21994;48.204;16.516;2023-01-26T01:46:21;1.30;99.90
35894;DHT22;21994;48.204;16.516;2023-01-26T01:48:55;1.40;99.90
35894;DHT22;21994;48.204;16.516;2023-01-26T01:52:07;1.20;99.90
35894;DHT22;21994;48.204;16.516;2023-01-26T01:54:14;1.10;99.90
35894;DHT22;21994;48.204;16.516;2023-01-26T01:56:42;1.30;99.90
35894;DHT22;21994;48.204;16.516;2023-01-26T01:59:09;1.50;99.90
35894;DHT22;21994;48.204;16.516;2023-01-26T02:01:36;1.50;99.90
35894;DHT22;21994;48.204;16.516;2023-01-26T02:04:03;1.50;99.90
35894;DHT22;21994;48.204;16.516;2023-01-26T02:09:19;1.60;99.90
35894;DHT22;21994;48.204;16.516;2023-01-26T02:12:06;1.60;99.90
35894;DHT22;21994;48.204;16.516;2023-01-26T02:14:35;1.60;99.90
35894;DHT22;21994;48.204;16.516;2023-01-26T02:17:00;1.60;99.90
35894;DHT22;21994;48.204;16.516;2023-01-26T02:19:30;1.60;99.90
35894;DHT22;21994;48.204;16.516;2023-01-26T02:22:30;1.60;99.90
35894;DHT22;21994;48.204;16.516;2023-01-26T02:28:08;1.60;99.90
35894;DHT22;21994;48.204;16.516;2023-01-26T02:30:34;1.60;99.90
35894;DHT22;21994;48.204;16.516;2023-01-26T02:33:00;1.50;99.90
35894;DHT22;21994;48.204;16.516;2023-01-26T02:35:26;1.40;99.90
35894;DHT22;21994;48.204;16.516;2023-01-26T02:37:52;1.50;99.90
35894;DHT22;21994;48.204;16.516;2023-01-26T02:40:24;1.50;99.90
35894;DHT22;21994;48.204;16.516;2023-01-26T02:42:56;1.50;99.90
35894;DHT22;21994;48.204;16.516;2023-01-26T02:45:22;1.50;99.90
35894;DHT22;21994;48.204;16.516;2023-01-26T02:47:49;1.60;99.90
35894;DHT22;21994;48.204;16.516;2023-01-26T02:50:14;1.50;99.90
35894;DHT22;21994;48.204;16.516;2023-01-26T02:52:40;1.50;99.90
35894;DHT22;21994;48.204;16.516;2023-01-26T02:55:07;1.50;99.90
35894;DHT22;21994;48.204;16.516;2023-01-26T02:57:50;1.50;99.90
35894;DHT22;21994;48.204;16.516;2023-01-26T03:00:21;1.40;99.90
35894;DHT22;21994;48.204;16.516;2023-01-26T03:02:48;1.50;99.90
35894;DHT22;21994;48.204;16.516;2023-01-26T03:05:16;1.50;99.90
35894;DHT22;21994;48.204;16.516;2023-01-26T03:07:42;1.40;99.90
35894;DHT22;21994;48.204;16.516;2023-01-26T03:10:08;1.50;99.90
35894;DHT22;21994;48.204;16.516;2023-01-26T03:12:34;1.50;99.90
35894;DHT22;21994;48.204;16.516;2023-01-26T03:15:00;1.50;99.90
35894;DHT22;21994;48.204;16.516;2023-01-26T03:17:44;1.50;99.90
35894;DHT22;21994;48.204;16.516;2023-01-26T03:20:10;1.40;99.90
35894;DHT22;21994;48.204;16.516;2023-01-26T03:22:54;1.40;99.90
35894;DHT22;21994;48.204;16.516;2023-01-26T03:25:39;1.50;99.90
35894;DHT22;21994;48.204;16.516;2023-01-26T03:28:24;1.50;99.90
35894;DHT22;21994;48.204;16.516;2023-01-26T03:30:51;1.60;99.90
35894;DHT22;21994;48.204;16.516;2023-01-26T03:33:18;1.50;99.90
35894;DHT22;21994;48.204;16.516;2023-01-26T03:35:44;1.60;99.90
35894;DHT22;21994;48.204;16.516;2023-01-26T03:38:10;1.50;99.90
35894;DHT22;21994;48.204;16.516;2023-01-26T03:40:36;1.60;99.90
35894;DHT22;21994;48.204;16.516;2023-01-26T03:43:20;1.50;99.90
35894;DHT22;21994;48.204;16.516;2023-01-26T03:46:05;1.60;99.90
35894;DHT22;21994;48.204;16.516;2023-01-26T03:48:50;1.60;99.90
35894;DHT22;21994;48.204;16.516;2023-01-26T03:51:34;1.50;99.90
35894;DHT22;21994;48.204;16.516;2023-01-26T03:54:19;1.50;99.90
35894;DHT22;21994;48.204;16.516;2023-01-26T03:57:04;1.50;99.90
35894;DHT22;21994;48.204;16.516;2023-01-26T03:59:30;1.50;99.90
35894;DHT22;21994;48.204;16.516;2023-01-26T04:02:07;1.50;99.90
35894;DHT22;21994;48.204;16.516;2023-01-26T04:04:53;1.60;99.90
35894;DHT22;21994;48.204;16.516;2023-01-26T04:07:37;1.60;99.90
35894;DHT22;21994;48.204;16.516;2023-01-26T04:10:22;1.60;99.90
35894;DHT22;21994;48.204;16.516;2023-01-26T04:12:48;1.60;99.90
35894;DHT22;21994;48.204;16.516;2023-01-26T04:15:34;1.60;99.90
35894;DHT22;21994;48.204;16.516;2023-01-26T04:18:19;1.60;99.90
35894;DHT22;21994;48.204;16.516;2023-01-26T04:21:03;1.60;99.90
35894;DHT22;21994;48.204;16.516;2023-01-26T04:23:49;1.60;99.90
35894;DHT22;21994;48.204;16.516;2023-01-26T04:26:15;1.60;99.90
35894;DHT22;21994;48.204;16.516;2023-01-26T04:28:41;1.60;99.90
35894;DHT22;21994;48.204;16.516;2023-01-26T04:31:06;1.60;99.90
35894;DHT22;21994;48.204;16.516;2023-01-26T04:33:32;1.60;99.90
35894;DHT22;21994;48.204;16.516;2023-01-26T04:36:04;1.70;99.90
35894;DHT22;21994;48.204;16.516;2023-01-26T04:38:31;1.60;99.90
35894;DHT22;21994;48.204;16.516;2023-01-26T04:40:57;1.70;99.90
35894;DHT22;21994;48.204;16.516;2023-01-26T04:43:23;1.60;99.90
35894;DHT22;21994;48.204;16.516;2023-01-26T04:48:30;1.60;99.90
35894;DHT22;21994;48.204;16.516;2023-01-26T04:51:00;1.60;99.90
35894;DHT22;21994;48.204;16.516;2023-01-26T04:53:34;1.60;99.90
35894;DHT22;21994;48.204;16.516;2023-01-26T04:56:00;1.60;99.90
35894;DHT22;21994;48.204;16.516;2023-01-26T04:58:26;1.60;99.90
35894;DHT22;21994;48.204;16.516;2023-01-26T05:00:53;1.70;99.90
35894;DHT22;21994;48.204;16.516;2023-01-26T05:03:19;1.60;99.90
35894;DHT22;21994;48.204;16.516;2023-01-26T05:05:49;1.60;99.90
35894;DHT22;21994;48.204;16.516;2023-01-26T05:08:17;1.60;99.90
35894;DHT22;21994;48.204;16.516;2023-01-26T05:10:44;1.60;99.90
35894;DHT22;21994;48.204;16.516;2023-01-26T05:13:10;1.60;99.90
35894;DHT22;21994;48.204;16.516;2023-01-26T05:15:36;1.60;99.90
35894;DHT22;21994;48.204;16.516;2023-01-26T05:18:02;1.60;99.90
35894;DHT22;21994;48.204;16.516;2023-01-26T05:20:28;1.60;99.90
35894;DHT22;21994;48.204;16.516;2023-01-26T05:22:54;1.60;99.90
35894;DHT22;21994;48.204;16.516;2023-01-26T05:25:20;1.60;99.90
35894;DHT22;21994;48.204;16.516;2023-01-26T05:27:47;1.60;99.90
35894;DHT22;21994;48.204;16.516;2023-01-26T05:30:13;1.60;99.90
35894;DHT22;21994;48.204;16.516;2023-01-26T05:32:39;1.60;99.90
35894;DHT22;21994;48.204;16.516;2023-01-26T05:35:05;1.60;99.90
35894;DHT22;21994;48.204;16.516;2023-01-26T05:37:32;1.60;99.90
35894;DHT22;21994;48.204;16.516;2023-01-26T05:39:59;1.50;99.90
35894;DHT22;21994;48.204;16.516;2023-01-26T05:42:25;1.60;99.90
35894;DHT22;21994;48.204;16.516;2023-01-26T05:44:51;1.50;99.90
35894;DHT22;21994;48.204;16.516;2023-01-26T05:47:17;1.60;99.90
35894;DHT22;21994;48.204;16.516;2023-01-26T05:49:44;1.70;99.90
35894;DHT22;21994;48.204;16.516;2023-01-26T05:52:11;1.60;99.90
35894;DHT22;21994;48.204;16.516;2023-01-26T05:54:39;1.70;99.90
35894;DHT22;21994;48.204;16.516;2023-01-26T05:57:05;1.60;99.90
35894;DHT22;21994;48.204;16.516;2023-01-26T05:59:31;1.60;99.90
35894;DHT22;21994;48.204;16.516;2023-01-26T06:01:59;1.60;99.90
35894;DHT22;21994;48.204;16.516;2023-01-26T06:04:25;1.60;99.90
35894;DHT22;21994;48.204;16.516;2023-01-26T06:06:52;1.60;99.90
35894;DHT22;21994;48.204;16.516;2023-01-26T06:09:19;1.60;99.90
35894;DHT22;21994;48.204;16.516;2023-01-26T06:11:45;1.60;99.90
35894;DHT22;21994;48.204;16.516;2023-01-26T06:14:11;1.70;99.90
35894;DHT22;21994;48.204;16.516;2023-01-26T06:16:36;1.70;99.90
35894;DHT22;21994;48.204;16.516;2023-01-26T06:19:02;1.70;99.90
35894;DHT22;21994;48.204;16.516;2023-01-26T06:21:29;1.70;99.90
35894;DHT22;21994;48.204;16.516;2023-01-26T06:23:55;1.70;99.90
35894;DHT22;21994;48.204;16.516;2023-01-26T06:26:21;1.60;99.90
35894;DHT22;21994;48.204;16.516;2023-01-26T06:28:49;1.70;99.90
35894;DHT22;21994;48.204;16.516;2023-01-26T06:31:15;1.50;99.90
35894;DHT22;21994;48.204;16.516;2023-01-26T06:33:41;1.60;99.90
35894;DHT22;21994;48.204;16.516;2023-01-26T06:36:07;1.70;99.90
35894;DHT22;21994;48.204;16.516;2023-01-26T06:38:37;1.80;99.90
35894;DHT22;21994;48.204;16.516;2023-01-26T06:41:04;1.70;99.90
35894;DHT22;21994;48.204;16.516;2023-01-26T06:43:32;1.60;99.90
35894;DHT22;21994;48.204;16.516;2023-01-26T06:46:03;1.60;99.90
35894;DHT22;21994;48.204;16.516;2023-01-26T06:48:31;1.60;99.90
35894;DHT22;21994;48.204;16.516;2023-01-26T06:53:51;1.60;99.90
35894;DHT22;21994;48.204;16.516;2023-01-26T06:56:19;1.70;99.90
35894;DHT22;21994;48.204;16.516;2023-01-26T06:58:45;1.70;99.90
35894;DHT22;21994;48.204;16.516;2023-01-26T07:01:17;1.50;99.90
35894;DHT22;21994;48.204;16.516;2023-01-26T07:03:46;1.40;99.90
35894;DHT22;21994;48.204;16.516;2023-01-26T07:06:12;1.60;99.90
35894;DHT22;21994;48.204;16.516;2023-01-26T07:08:38;1.50;99.90
35894;DHT22;21994;48.204;16.516;2023-01-26T07:11:04;1.60;99.90
35894;DHT22;21994;48.204;16.516;2023-01-26T07:13:30;1.60;99.90
35894;DHT22;21994;48.204;16.516;2023-01-26T07:16:00;1.60;99.90
35894;DHT22;21994;48.204;16.516;2023-01-26T07:18:30;1.70;99.90
35894;DHT22;21994;48.204;16.516;2023-01-26T07:21:00;1.70;99.90
35894;DHT22;21994;48.204;16.516;2023-01-26T07:23:27;1.70;99.90
35894;DHT22;21994;48.204;16.516;2023-01-26T07:25:53;1.70;99.90
35894;DHT22;21994;48.204;16.516;2023-01-26T07:28:19;1.70;99.90
35894;DHT22;21994;48.204;16.516;2023-01-26T07:30:45;1.70;99.90
35894;DHT22;21994;48.204;16.516;2023-01-26T07:33:10;1.60;99.90
35894;DHT22;21994;48.204;16.516;2023-01-26T07:35:36;1.70;99.90
35894;DHT22;21994;48.204;16.516;2023-01-26T07:38:02;1.70;99.90
35894;DHT22;21994;48.204;16.516;2023-01-26T07:40:29;1.50;99.90
35894;DHT22;21994;48.204;16.516;2023-01-26T07:42:55;1.60;99.90
35894;DHT22;21994;48.204;16.516;2023-01-26T07:45:21;1.70;99.90
35894;DHT22;21994;48.204;16.516;2023-01-26T07:47:47;1.60;99.90
35894;DHT22;21994;48.204;16.516;2023-01-26T07:50:13;1.70;99.90
35894;DHT22;21994;48.204;16.516;2023-01-26T07:52:39;1.60;99.90
35894;DHT22;21994;48.204;16.516;2023-01-26T07:55:04;1.80;99.90
35894;DHT22;21994;48.204;16.516;2023-01-26T07:57:31;1.80;99.90
35894;DHT22;21994;48.204;16.516;2023-01-26T07:59:58;1.80;99.90
35894;DHT22;21994;48.204;16.516;2023-01-26T08:02:24;1.80;99.90
35894;DHT22;21994;48.204;16.516;2023-01-26T08:04:50;1.90;99.90
35894;DHT22;21994;48.204;16.516;2023-01-26T08:07:15;1.90;99.90
35894;DHT22;21994;48.204;16.516;2023-01-26T08:09:41;2.00;99.90
35894;DHT22;21994;48.204;16.516;2023-01-26T08:12:07;2.00;99.90
35894;DHT22;21994;48.204;16.516;2023-01-26T08:14:33;2.00;99.90
35894;DHT22;21994;48.204;16.516;2023-01-26T08:17:00;1.90;99.90
35894;DHT22;21994;48.204;16.516;2023-01-26T08:19:26;2.00;99.90
35894;DHT22;21994;48.204;16.516;2023-01-26T08:21:52;2.00;99.90
35894;DHT22;21994;48.204;16.516;2023-01-26T08:24:18;2.00;99.90
35894;DHT22;21994;48.204;16.516;2023-01-26T08:26:44;2.00;99.90
35894;DHT22;21994;48.204;16.516;2023-01-26T08:29:10;2.00;99.90
35894;DHT22;21994;48.204;16.516;2023-01-26T08:31:36;2.20;99.90
35894;DHT22;21994;48.204;16.516;2023-01-26T08:34:02;2.20;99.90
35894;DHT22;21994;48.204;16.516;2023-01-26T08:36:28;2.20;99.90
35894;DHT22;21994;48.204;16.516;2023-01-26T08:38:54;2.20;99.90
35894;DHT22;21994;48.204;16.516;2023-01-26T08:41:21;2.20;99.90
35894;DHT22;21994;48.204;16.516;2023-01-26T08:43:46;2.20;99.90
35894;DHT22;21994;48.204;16.516;2023-01-26T08:46:13;2.10;99.90
35894;DHT22;21994;48.204;16.516;2023-01-26T08:48:39;2.20;99.90
35894;DHT22;21994;48.204;16.516;2023-01-26T08:51:05;2.20;99.90
35894;DHT22;21994;48.204;16.516;2023-01-26T08:53:34;2.30;99.90
35894;DHT22;21994;48.204;16.516;2023-01-26T08:56:05;2.20;99.90
35894;DHT22;21994;48.204;16.516;2023-01-26T08:58:32;2.20;99.90
35894;DHT22;21994;48.204;16.516;2023-01-26T09:00:58;2.30;99.90
35894;DHT22;21994;48.204;16.516;2023-01-26T09:03:24;2.30;99.90
35894;DHT22;21994;48.204;16.516;2023-01-26T09:05:50;2.30;99.90
35894;DHT22;21994;48.204;16.516;2023-01-26T09:08:16;2.20;99.90
35894;DHT22;21994;48.204;16.516;2023-01-26T09:10:41;2.30;99.90
35894;DHT22;21994;48.204;16.516;2023-01-26T09:13:09;2.30;99.90
35894;DHT22;21994;48.204;16.516;2023-01-26T09:15:36;2.40;99.90
35894;DHT22;21994;48.204;16.516;2023-01-26T09:18:02;2.30;99.90
35894;DHT22;21994;48.204;16.516;2023-01-26T09:20:28;2.30;99.90
35894;DHT22;21994;48.204;16.516;2023-01-26T09:22:54;2.30;99.90
35894;DHT22;21994;48.204;16.516;2023-01-26T09:25:20;2.30;99.90
35894;DHT22;21994;48.204;16.516;2023-01-26T09:27:45;2.40;99.90
35894;DHT22;21994;48.204;16.516;2023-01-26T09:30:11;2.40;99.90
35894;DHT22;21994;48.204;16.516;2023-01-26T09:32:38;2.40;99.90
35894;DHT22;21994;48.204;16.516;2023-01-26T09:35:04;2.40;99.90
35894;DHT22;21994;48.204;16.516;2023-01-26T09:37:32;2.30;99.90
35894;DHT22;21994;48.204;16.516;2023-01-26T09:45:39;2.50;99.90
35894;DHT22;21994;48.204;16.516;2023-01-26T09:52:03;2.60;99.90
35894;DHT22;21994;48.204;16.516;2023-01-26T09:54:18;2.50;99.90
35894;DHT22;21994;48.204;16.516;2023-01-26T09:57:01;2.50;99.90
35894;DHT22;21994;48.204;16.516;2023-01-26T10:08:07;2.60;99.90
35894;DHT22;21994;48.204;16.516;2023-01-26T10:10:37;2.50;99.90
35894;DHT22;21994;48.204;16.516;2023-01-26T10:13:08;2.40;99.90
35894;DHT22;21994;48.204;16.516;2023-01-26T10:15:38;2.60;99.90
35894;DHT22;21994;48.204;16.516;2023-01-26T10:18:12;2.60;99.90
35894;DHT22;21994;48.204;16.516;2023-01-26T10:20:44;2.60;99.90
35894;DHT22;21994;48.204;16.516;2023-01-26T10:23:15;2.60;99.90
35894;DHT22;21994;48.204;16.516;2023-01-26T10:25:42;2.60;99.90
35894;DHT22;21994;48.204;16.516;2023-01-26T10:30:48;2.50;99.90
35894;DHT22;21994;48.204;16.516;2023-01-26T10:35:58;2.50;99.90
35894;DHT22;21994;48.204;16.516;2023-01-26T10:46:29;2.60;99.90
35894;DHT22;21994;48.204;16.516;2023-01-26T10:48:59;2.50;99.90
35894;DHT22;21994;48.204;16.516;2023-01-26T10:51:31;2.50;99.90
35894;DHT22;21994;48.204;16.516;2023-01-26T10:56:49;2.60;99.90
35894;DHT22;21994;48.204;16.516;2023-01-26T10:59:22;2.50;99.90
35894;DHT22;21994;48.204;16.516;2023-01-26T11:01:50;2.60;99.90
35894;DHT22;21994;48.204;16.516;2023-01-26T11:04:20;2.80;99.90
35894;DHT22;21994;48.204;16.516;2023-01-26T11:06:47;2.90;99.90
35894;DHT22;21994;48.204;16.516;2023-01-26T11:11:39;2.90;99.90
35894;DHT22;21994;48.204;16.516;2023-01-26T11:14:15;2.90;99.90
35894;DHT22;21994;48.204;16.516;2023-01-26T11:21:57;2.90;99.90
35894;DHT22;21994;48.204;16.516;2023-01-26T11:24:24;2.90;99.90
35894;DHT22;21994;48.204;16.516;2023-01-26T11:27:05;2.80;99.90
35894;DHT22;21994;48.204;16.516;2023-01-26T11:54:13;2.80;99.90
35894;DHT22;21994;48.204;16.516;2023-01-26T12:02:39;2.80;99.90
35894;DHT22;21994;48.204;16.516;2023-01-26T12:05:17;2.90;99.90
35894;DHT22;21994;48.204;16.516;2023-01-26T12:07:47;2.90;99.90
35894;DHT22;21994;48.204;16.516;2023-01-26T12:13:39;2.80;99.90
35894;DHT22;21994;48.204;16.516;2023-01-26T12:15:49;2.90;99.90
35894;DHT22;21994;48.204;16.516;2023-01-26T12:18:23;2.90;99.90
35894;DHT22;21994;48.204;16.516;2023-01-26T12:24:00;2.90;99.90
35894;DHT22;21994;48.204;16.516;2023-01-26T12:26:27;3.00;99.90
35894;DHT22;21994;48.204;16.516;2023-01-26T12:32:09;2.90;99.90
35894;DHT22;21994;48.204;16.516;2023-01-26T12:34:36;2.90;99.90
35894;DHT22;21994;48.204;16.516;2023-01-26T12:42:52;2.90;99.90
35894;DHT22;21994;48.204;16.516;2023-01-26T12:45:24;2.90;99.90
35894;DHT22;21994;48.204;16.516;2023-01-26T12:47:54;2.90;99.90
35894;DHT22;21994;48.204;16.516;2023-01-26T12:56:27;2.80;99.90
35894;DHT22;21994;48.204;16.516;2023-01-26T12:58:33;3.00;99.90
35894;DHT22;21994;48.204;16.516;2023-01-26T13:03:29;2.90;99.90
35894;DHT22;21994;48.204;16.516;2023-01-26T13:11:04;3.00;99.90
35894;DHT22;21994;48.204;16.516;2023-01-26T13:13:32;2.90;99.90
35894;DHT22;21994;48.204;16.516;2023-01-26T13:26:43;3.00;99.90
35894;DHT22;21994;48.204;16.516;2023-01-26T13:40:40;3.00;99.90
35894;DHT22;21994;48.204;16.516;2023-01-26T13:43:23;3.00;99.90
35894;DHT22;21994;48.204;16.516;2023-01-26T13:51:02;2.90;99.90
35894;DHT22;21994;48.204;16.516;2023-01-26T13:53:36;2.90;99.90
35894;DHT22;21994;48.204;16.516;2023-01-26T13:56:06;3.00;99.90
35894;DHT22;21994;48.204;16.516;2023-01-26T13:58:48;2.90;99.90
35894;DHT22;21994;48.204;16.516;2023-01-26T14:01:14;2.90;99.90
35894;DHT22;21994;48.204;16.516;2023-01-26T14:03:41;2.90;99.90
35894;DHT22;21994;48.204;16.516;2023-01-26T14:06:08;3.00;99.90
35894;DHT22;21994;48.204;16.516;2023-01-26T14:08:41;3.00;99.90
35894;DHT22;21994;48.204;16.516;2023-01-26T14:11:17;3.00;99.90
35894;DHT22;21994;48.204;16.516;2023-01-26T14:13:45;2.90;99.90
35894;DHT22;21994;48.204;16.516;2023-01-26T14:16:24;2.90;99.90
35894;DHT22;21994;48.204;16.516;2023-01-26T14:19:03;2.90;99.90
35894;DHT22;21994;48.204;16.516;2023-01-26T14:24:14;2.80;99.90
35894;DHT22;21994;48.204;16.516;2023-01-26T14:26:40;2.80;99.90
35894;DHT22;21994;48.204;16.516;2023-01-26T14:29:26;2.80;99.90
35894;DHT22;21994;48.204;16.516;2023-01-26T14:31:53;2.70;99.90
35894;DHT22;21994;48.204;16.516;2023-01-26T14:34:23;2.70;99.90
35894;DHT22;21994;48.204;16.516;2023-01-26T14:37:05;2.50;99.90
35894;DHT22;21994;48.204;16.516;2023-01-26T14:39:32;2.60;99.90
35894;DHT22;21994;48.204;16.516;2023-01-26T14:41:58;2.50;99.90
35894;DHT22;21994;48.204;16.516;2023-01-26T14:44:24;2.60;99.90
35894;DHT22;21994;48.204;16.516;2023-01-26T14:49:37;2.60;99.90
35894;DHT22;21994;48.204;16.516;2023-01-26T14:52:14;2.70;99.90
35894;DHT22;21994;48.204;16.516;2023-01-26T14:54:42;2.60;99.90
35894;DHT22;21994;48.204;16.516;2023-01-26T14:57:10;2.60;99.90
35894;DHT22;21994;48.204;16.516;2023-01-26T14:59:45;2.50;99.90
35894;DHT22;21994;48.204;16.516;2023-01-26T15:02:17;2.40;99.90
35894;DHT22;21994;48.204;16.516;2023-01-26T15:04:48;2.40;99.90
35894;DHT22;21994;48.204;16.516;2023-01-26T15:07:36;2.40;99.90
35894;DHT22;21994;48.204;16.516;2023-01-26T15:16:00;2.30;99.90
35894;DHT22;21994;48.204;16.516;2023-01-26T15:18:31;2.30;99.90
35894;DHT22;21994;48.204;16.516;2023-01-26T15:23:36;2.20;99.90
35894;DHT22;21994;48.204;16.516;2023-01-26T15:26:15;2.20;99.90
35894;DHT22;21994;48.204;16.516;2023-01-26T15:29:04;2.20;99.90
35894;DHT22;21994;48.204;16.516;2023-01-26T15:31:34;2.10;99.90
35894;DHT22;21994;48.204;16.516;2023-01-26T15:34:02;2.10;99.90
35894;DHT22;21994;48.204;16.516;2023-01-26T15:36:33;2.10;99.90
35894;DHT22;21994;48.204;16.516;2023-01-26T15:39:09;2.10;99.90
35894;DHT22;21994;48.204;16.516;2023-01-26T15:41:37;2.10;99.90
35894;DHT22;21994;48.204;16.516;2023-01-26T15:44:03;2.10;99.90
35894;DHT22;21994;48.204;16.516;2023-01-26T15:46:29;2.30;99.90
35894;DHT22;21994;48.204;16.516;2023-01-26T15:48:54;2.50;99.90
35894;DHT22;21994;48.204;16.516;2023-01-26T15:51:20;2.30;99.90
35894;DHT22;21994;48.204;16.516;2023-01-26T15:53:46;2.30;99.90
35894;DHT22;21994;48.204;16.516;2023-01-26T15:56:13;2.30;99.90
35894;DHT22;21994;48.204;16.516;2023-01-26T15:58:39;2.20;99.90
35894;DHT22;21994;48.204;16.516;2023-01-26T16:01:06;2.20;99.90
35894;DHT22;21994;48.204;16.516;2023-01-26T16:03:33;2.20;99.90
35894;DHT22;21994;48.204;16.516;2023-01-26T16:06:01;2.30;99.90
35894;DHT22;21994;48.204;16.516;2023-01-26T16:08:27;2.40;99.90
35894;DHT22;21994;48.204;16.516;2023-01-26T16:10:55;2.40;99.90
35894;DHT22;21994;48.204;16.516;2023-01-26T16:13:24;2.40;99.90
35894;DHT22;21994;48.204;16.516;2023-01-26T16:15:50;2.40;99.90
35894;DHT22;21994;48.204;16.516;2023-01-26T16:18:17;2.50;99.90
35894;DHT22;21994;48.204;16.516;2023-01-26T16:20:44;2.40;99.90
35894;DHT22;21994;48.204;16.516;2023-01-26T16:23:21;2.30;99.90
35894;DHT22;21994;48.204;16.516;2023-01-26T16:25:49;2.20;99.90
35894;DHT22;21994;48.204;16.516;2023-01-26T16:28:15;2.10;99.90
35894;DHT22;21994;48.204;16.516;2023-01-26T16:30:41;2.10;99.90
35894;DHT22;21994;48.204;16.516;2023-01-26T16:33:10;2.10;99.90
35894;DHT22;21994;48.204;16.516;2023-01-26T16:35:37;2.00;99.90
35894;DHT22;21994;48.204;16.516;2023-01-26T16:38:02;2.00;99.90
35894;DHT22;21994;48.204;16.516;2023-01-26T16:40:31;2.10;99.90
35894;DHT22;21994;48.204;16.516;2023-01-26T16:42:57;1.90;99.90
35894;DHT22;21994;48.204;16.516;2023-01-26T16:45:24;1.90;99.90
35894;DHT22;21994;48.204;16.516;2023-01-26T16:47:52;1.90;99.90
35894;DHT22;21994;48.204;16.516;2023-01-26T16:50:23;2.10;99.90
35894;DHT22;21994;48.204;16.516;2023-01-26T16:52:49;2.00;99.90
35894;DHT22;21994;48.204;16.516;2023-01-26T16:55:15;1.90;99.90
35894;DHT22;21994;48.204;16.516;2023-01-26T16:57:42;1.90;99.90
35894;DHT22;21994;48.204;16.516;2023-01-26T17:00:11;1.70;99.90
35894;DHT22;21994;48.204;16.516;2023-01-26T17:02:41;1.60;99.90
35894;DHT22;21994;48.204;16.516;2023-01-26T17:05:11;1.50;99.90
35894;DHT22;21994;48.204;16.516;2023-01-26T17:07:38;1.50;99.90
35894;DHT22;21994;48.204;16.516;2023-01-26T17:10:04;1.50;99.90
35894;DHT22;21994;48.204;16.516;2023-01-26T17:12:30;1.50;99.90
35894;DHT22;21994;48.204;16.516;2023-01-26T17:14:59;1.60;99.90
35894;DHT22;21994;48.204;16.516;2023-01-26T17:17:25;1.80;99.90
35894;DHT22;21994;48.204;16.516;2023-01-26T17:19:51;1.80;99.90
35894;DHT22;21994;48.204;16.516;2023-01-26T17:22:17;1.60;99.90
35894;DHT22;21994;48.204;16.516;2023-01-26T17:24:45;1.70;99.90
35894;DHT22;21994;48.204;16.516;2023-01-26T17:27:13;1.60;99.90
35894;DHT22;21994;48.204;16.516;2023-01-26T17:29:39;1.70;99.90
35894;DHT22;21994;48.204;16.516;2023-01-26T17:32:07;1.60;99.90
35894;DHT22;21994;48.204;16.516;2023-01-26T17:34:32;1.60;99.90
35894;DHT22;21994;48.204;16.516;2023-01-26T17:36:58;1.60;99.90
35894;DHT22;21994;48.204;16.516;2023-01-26T17:39:25;1.60;99.90
35894;DHT22;21994;48.204;16.516;2023-01-26T17:41:51;1.50;99.90
35894;DHT22;21994;48.204;16.516;2023-01-26T17:44:18;1.50;99.90
35894;DHT22;21994;48.204;16.516;2023-01-26T17:46:44;1.70;99.90
35894;DHT22;21994;48.204;16.516;2023-01-26T17:49:10;1.60;99.90
35894;DHT22;21994;48.204;16.516;2023-01-26T17:51:38;1.50;99.90
35894;DHT22;21994;48.204;16.516;2023-01-26T17:54:06;1.50;99.90
35894;DHT22;21994;48.204;16.516;2023-01-26T17:56:32;1.50;99.90
35894;DHT22;21994;48.204;16.516;2023-01-26T17:59:00;1.50;99.90
35894;DHT22;21994;48.204;16.516;2023-01-26T18:01:25;1.50;99.90
35894;DHT22;21994;48.204;16.516;2023-01-26T18:03:54;1.50;99.90
35894;DHT22;21994;48.204;16.516;2023-01-26T18:06:20;1.70;99.90
35894;DHT22;21994;48.204;16.516;2023-01-26T18:08:45;1.60;99.90
35894;DHT22;21994;48.204;16.516;2023-01-26T18:11:12;1.70;99.90
35894;DHT22;21994;48.204;16.516;2023-01-26T18:13:41;1.60;99.90